sensor_id;sensor_type;location;lat;lon;timestamp;temperature;humidity
4699;DHT22;33708;49.466;11.176;2022-10-22T00:02:25;13.20;99.90
4699;DHT22;33708;49.466;11.176;2022-10-22T00:04:52;13.10;99.90
4699;DHT22;33708;49.466;11.176;2022-10-22T00:07:19;13.20;99.90
4699;DHT22;33708;49.466;11.176;2022-10-22T00:09:45;13.30;1.00
4699;DHT22;33708;49.466;11.176;2022-10-22T00:12:12;13.20;99.90
4699;DHT22;33708;49.466;11.176;2022-10-22T00:14:38;13.30;99.90
4699;DHT22;33708;49.466;11.176;2022-10-22T00:17:04;13.30;99.90
4699;DHT22;33708;49.466;11.176;2022-10-22T00:19:30;13.30;99.90
4699;DHT22;33708;49.466;11.176;2022-10-22T00:21:55;13.40;99.90
4699;DHT22;33708;49.466;11.176;2022-10-22T00:24:23;13.50;99.90
4699;DHT22;33708;49.466;11.176;2022-10-22T00:26:48;13.30;99.90
4699;DHT22;33708;49.466;11.176;2022-10-22T00:29:14;13.40;99.90
4699;DHT22;33708;49.466;11.176;2022-10-22T00:31:40;13.40;99.90
4699;DHT22;33708;49.466;11.176;2022-10-22T00:34:05;13.60;99.90
4699;DHT22;33708;49.466;11.176;2022-10-22T00:36:31;13.50;99.90
4699;DHT22;33708;49.466;11.176;2022-10-22T00:38:56;13.40;99.90
4699;DHT22;33708;49.466;11.176;2022-10-22T00:41:22;13.50;99.90
4699;DHT22;33708;49.466;11.176;2022-10-22T00:43:59;13.40;99.90
4699;DHT22;33708;49.466;11.176;2022-10-22T00:46:25;13.50;99.90
4699;DHT22;33708;49.466;11.176;2022-10-22T00:48:52;13.50;99.90
4699;DHT22;33708;49.466;11.176;2022-10-22T00:51:20;13.60;99.90
4699;DHT22;33708;49.466;11.176;2022-10-22T00:53:55;13.50;99.90
4699;DHT22;33708;49.466;11.176;2022-10-22T00:56:22;13.30;99.90
4699;DHT22;33708;49.466;11.176;2022-10-22T00:58:52;13.50;99.90
4699;DHT22;33708;49.466;11.176;2022-10-22T01:01:30;13.60;99.90
4699;DHT22;33708;49.466;11.176;2022-10-22T01:03:56;13.50;99.90
4699;DHT22;33708;49.466;11.176;2022-10-22T01:06:27;13.50;99.90
4699;DHT22;33708;49.466;11.176;2022-10-22T01:11:47;13.50;99.90
4699;DHT22;33708;49.466;11.176;2022-10-22T01:19:47;13.50;99.90
4699;DHT22;33708;49.466;11.176;2022-10-22T01:23:04;13.60;99.90
4699;DHT22;33708;49.466;11.176;2022-10-22T01:28:47;13.50;99.90
4699;DHT22;33708;49.466;11.176;2022-10-22T01:31:17;13.50;99.90
4699;DHT22;33708;49.466;11.176;2022-10-22T01:33:45;13.60;99.90
4699;DHT22;33708;49.466;11.176;2022-10-22T01:36:12;13.60;99.90
4699;DHT22;33708;49.466;11.176;2022-10-22T01:38:39;13.80;99.90
4699;DHT22;33708;49.466;11.176;2022-10-22T01:41:06;13.80;99.90
4699;DHT22;33708;49.466;11.176;2022-10-22T01:43:32;13.80;99.90
4699;DHT22;33708;49.466;11.176;2022-10-22T01:45:59;13.90;99.90
4699;DHT22;33708;49.466;11.176;2022-10-22T01:51:06;14.00;99.90
4699;DHT22;33708;49.466;11.176;2022-10-22T01:53:48;14.00;99.90
4699;DHT22;33708;49.466;11.176;2022-10-22T01:59:07;14.10;99.90
4699;DHT22;33708;49.466;11.176;2022-10-22T02:01:46;14.10;99.90
4699;DHT22;33708;49.466;11.176;2022-10-22T02:04:20;14.00;99.90
4699;DHT22;33708;49.466;11.176;2022-10-22T02:06:50;14.00;99.90
4699;DHT22;33708;49.466;11.176;2022-10-22T02:09:18;14.00;99.90
4699;DHT22;33708;49.466;11.176;2022-10-22T02:11:46;14.00;99.90
4699;DHT22;33708;49.466;11.176;2022-10-22T02:14:15;14.00;99.90
4699;DHT22;33708;49.466;11.176;2022-10-22T02:16:44;14.00;99.90
4699;DHT22;33708;49.466;11.176;2022-10-22T02:19:22;13.90;99.90
4699;DHT22;33708;49.466;11.176;2022-10-22T02:21:48;13.90;99.90
4699;DHT22;33708;49.466;11.176;2022-10-22T02:24:15;13.90;99.90
4699;DHT22;33708;49.466;11.176;2022-10-22T02:27:19;13.80;99.90
4699;DHT22;33708;49.466;11.176;2022-10-22T02:30:07;13.80;99.90
4699;DHT22;33708;49.466;11.176;2022-10-22T02:32:58;13.80;99.90
4699;DHT22;33708;49.466;11.176;2022-10-22T02:35:27;13.70;99.90
4699;DHT22;33708;49.466;11.176;2022-10-22T02:37:54;13.70;99.90
4699;DHT22;33708;49.466;11.176;2022-10-22T02:40:21;13.70;99.90
4699;DHT22;33708;49.466;11.176;2022-10-22T02:42:48;13.60;99.90
4699;DHT22;33708;49.466;11.176;2022-10-22T02:45:15;13.60;99.90
4699;DHT22;33708;49.466;11.176;2022-10-22T02:47:41;13.70;99.90
4699;DHT22;33708;49.466;11.176;2022-10-22T02:50:07;13.70;99.90
4699;DHT22;33708;49.466;11.176;2022-10-22T02:52:33;13.60;99.90
4699;DHT22;33708;49.466;11.176;2022-10-22T02:54:58;13.80;99.90
4699;DHT22;33708;49.466;11.176;2022-10-22T02:57:24;13.70;99.90
4699;DHT22;33708;49.466;11.176;2022-10-22T02:59:49;13.50;99.90
4699;DHT22;33708;49.466;11.176;2022-10-22T03:02:15;13.40;99.90
4699;DHT22;33708;49.466;11.176;2022-10-22T03:04:41;13.50;99.90
4699;DHT22;33708;49.466;11.176;2022-10-22T03:07:06;13.60;99.90
4699;DHT22;33708;49.466;11.176;2022-10-22T03:09:32;13.60;99.90
4699;DHT22;33708;49.466;11.176;2022-10-22T03:11:58;13.50;99.90
4699;DHT22;33708;49.466;11.176;2022-10-22T03:14:23;13.60;99.90
4699;DHT22;33708;49.466;11.176;2022-10-22T03:16:49;13.60;99.90
4699;DHT22;33708;49.466;11.176;2022-10-22T03:19:15;13.60;99.90
4699;DHT22;33708;49.466;11.176;2022-10-22T03:21:48;13.80;99.90
4699;DHT22;33708;49.466;11.176;2022-10-22T03:24:18;13.80;99.90
4699;DHT22;33708;49.466;11.176;2022-10-22T03:26:46;13.80;99.90
4699;DHT22;33708;49.466;11.176;2022-10-22T03:29:14;13.80;99.90
4699;DHT22;33708;49.466;11.176;2022-10-22T03:31:40;13.60;99.90
4699;DHT22;33708;49.466;11.176;2022-10-22T03:34:05;13.50;99.90
4699;DHT22;33708;49.466;11.176;2022-10-22T03:36:31;13.50;99.90
4699;DHT22;33708;49.466;11.176;2022-10-22T03:38:59;13.60;99.90
4699;DHT22;33708;49.466;11.176;2022-10-22T03:41:25;13.60;99.90
4699;DHT22;33708;49.466;11.176;2022-10-22T03:43:51;13.80;99.90
4699;DHT22;33708;49.466;11.176;2022-10-22T03:46:18;13.70;99.90
4699;DHT22;33708;49.466;11.176;2022-10-22T03:48:44;13.80;99.90
4699;DHT22;33708;49.466;11.176;2022-10-22T03:51:10;13.80;99.90
4699;DHT22;33708;49.466;11.176;2022-10-22T03:53:35;13.90;99.90
4699;DHT22;33708;49.466;11.176;2022-10-22T03:56:01;13.90;99.90
4699;DHT22;33708;49.466;11.176;2022-10-22T03:58:27;13.90;99.90
4699;DHT22;33708;49.466;11.176;2022-10-22T04:00:52;13.80;99.90
4699;DHT22;33708;49.466;11.176;2022-10-22T04:03:18;13.80;99.90
4699;DHT22;33708;49.466;11.176;2022-10-22T04:05:44;13.60;99.90
4699;DHT22;33708;49.466;11.176;2022-10-22T04:08:09;13.60;99.90
4699;DHT22;33708;49.466;11.176;2022-10-22T04:10:35;13.60;99.90
4699;DHT22;33708;49.466;11.176;2022-10-22T04:13:00;13.60;99.90
4699;DHT22;33708;49.466;11.176;2022-10-22T04:15:26;13.60;99.90
4699;DHT22;33708;49.466;11.176;2022-10-22T04:17:53;13.60;99.90
4699;DHT22;33708;49.466;11.176;2022-10-22T04:20:19;13.70;99.90
4699;DHT22;33708;49.466;11.176;2022-10-22T04:22:45;13.70;99.90
4699;DHT22;33708;49.466;11.176;2022-10-22T04:25:10;13.70;99.90
4699;DHT22;33708;49.466;11.176;2022-10-22T04:27:36;13.80;99.90
4699;DHT22;33708;49.466;11.176;2022-10-22T04:30:03;13.80;99.90
4699;DHT22;33708;49.466;11.176;2022-10-22T04:32:29;13.80;99.90
4699;DHT22;33708;49.466;11.176;2022-10-22T04:34:55;13.80;99.90
4699;DHT22;33708;49.466;11.176;2022-10-22T04:37:21;13.90;99.90
4699;DHT22;33708;49.466;11.176;2022-10-22T04:39:46;13.90;99.90
4699;DHT22;33708;49.466;11.176;2022-10-22T04:42:13;13.90;99.90
4699;DHT22;33708;49.466;11.176;2022-10-22T04:44:38;13.80;99.90
4699;DHT22;33708;49.466;11.176;2022-10-22T04:47:04;13.90;99.90
4699;DHT22;33708;49.466;11.176;2022-10-22T04:49:30;13.70;99.90
4699;DHT22;33708;49.466;11.176;2022-10-22T04:51:55;13.70;99.90
4699;DHT22;33708;49.466;11.176;2022-10-22T04:54:21;13.60;99.90
4699;DHT22;33708;49.466;11.176;2022-10-22T04:56:47;13.50;99.90
4699;DHT22;33708;49.466;11.176;2022-10-22T04:59:12;13.50;99.90
4699;DHT22;33708;49.466;11.176;2022-10-22T05:01:41;13.50;99.90
4699;DHT22;33708;49.466;11.176;2022-10-22T05:04:08;13.60;99.90
4699;DHT22;33708;49.466;11.176;2022-10-22T05:06:35;13.60;99.90
4699;DHT22;33708;49.466;11.176;2022-10-22T05:09:05;13.50;99.90
4699;DHT22;33708;49.466;11.176;2022-10-22T05:11:33;13.50;99.90
4699;DHT22;33708;49.466;11.176;2022-10-22T05:14:01;13.50;99.90
4699;DHT22;33708;49.466;11.176;2022-10-22T05:16:28;13.50;99.90
4699;DHT22;33708;49.466;11.176;2022-10-22T05:18:54;13.50;99.90
4699;DHT22;33708;49.466;11.176;2022-10-22T05:21:20;13.50;99.90
4699;DHT22;33708;49.466;11.176;2022-10-22T05:23:47;13.50;99.90
4699;DHT22;33708;49.466;11.176;2022-10-22T05:26:18;13.40;99.90
4699;DHT22;33708;49.466;11.176;2022-10-22T05:28:44;13.50;99.90
4699;DHT22;33708;49.466;11.176;2022-10-22T05:31:11;13.40;99.90
4699;DHT22;33708;49.466;11.176;2022-10-22T05:33:37;13.30;99.90
4699;DHT22;33708;49.466;11.176;2022-10-22T05:36:05;13.30;99.90
4699;DHT22;33708;49.466;11.176;2022-10-22T05:38:33;13.30;99.90
4699;DHT22;33708;49.466;11.176;2022-10-22T05:41:04;13.10;99.90
4699;DHT22;33708;49.466;11.176;2022-10-22T05:43:30;12.90;99.90
4699;DHT22;33708;49.466;11.176;2022-10-22T05:46:04;12.90;99.90
4699;DHT22;33708;49.466;11.176;2022-10-22T05:48:30;12.80;99.90
4699;DHT22;33708;49.466;11.176;2022-10-22T05:50:55;12.80;99.90
4699;DHT22;33708;49.466;11.176;2022-10-22T05:53:21;12.80;99.90
4699;DHT22;33708;49.466;11.176;2022-10-22T05:55:47;12.70;99.90
4699;DHT22;33708;49.466;11.176;2022-10-22T05:58:13;12.60;99.90
4699;DHT22;33708;49.466;11.176;2022-10-22T06:00:39;12.50;99.90
4699;DHT22;33708;49.466;11.176;2022-10-22T06:03:04;12.40;99.90
4699;DHT22;33708;49.466;11.176;2022-10-22T06:05:34;12.50;99.90
4699;DHT22;33708;49.466;11.176;2022-10-22T06:08:00;12.50;99.90
4699;DHT22;33708;49.466;11.176;2022-10-22T06:10:26;12.30;99.90
4699;DHT22;33708;49.466;11.176;2022-10-22T06:12:52;12.40;99.90
4699;DHT22;33708;49.466;11.176;2022-10-22T06:15:18;12.30;99.90
4699;DHT22;33708;49.466;11.176;2022-10-22T06:17:45;12.30;99.90
4699;DHT22;33708;49.466;11.176;2022-10-22T06:20:11;12.40;99.90
4699;DHT22;33708;49.466;11.176;2022-10-22T06:22:37;12.40;99.90
4699;DHT22;33708;49.466;11.176;2022-10-22T06:25:03;12.50;99.90
4699;DHT22;33708;49.466;11.176;2022-10-22T06:27:29;12.50;99.90
4699;DHT22;33708;49.466;11.176;2022-10-22T06:29:55;12.70;99.90
4699;DHT22;33708;49.466;11.176;2022-10-22T06:32:21;12.80;99.90
4699;DHT22;33708;49.466;11.176;2022-10-22T06:34:46;12.90;99.90
4699;DHT22;33708;49.466;11.176;2022-10-22T06:37:12;13.00;99.90
4699;DHT22;33708;49.466;11.176;2022-10-22T06:39:39;12.90;99.90
4699;DHT22;33708;49.466;11.176;2022-10-22T06:42:05;13.00;99.90
4699;DHT22;33708;49.466;11.176;2022-10-22T06:44:31;13.10;99.90
4699;DHT22;33708;49.466;11.176;2022-10-22T06:46:57;13.00;99.90
4699;DHT22;33708;49.466;11.176;2022-10-22T06:49:23;13.10;99.90
4699;DHT22;33708;49.466;11.176;2022-10-22T06:51:49;13.20;99.90
4699;DHT22;33708;49.466;11.176;2022-10-22T06:54:15;13.30;99.90
4699;DHT22;33708;49.466;11.176;2022-10-22T06:56:41;13.30;99.90
4699;DHT22;33708;49.466;11.176;2022-10-22T06:59:07;13.30;99.90
4699;DHT22;33708;49.466;11.176;2022-10-22T07:01:34;13.30;99.90
4699;DHT22;33708;49.466;11.176;2022-10-22T07:04:00;13.30;99.90
4699;DHT22;33708;49.466;11.176;2022-10-22T07:06:27;13.30;99.90
4699;DHT22;33708;49.466;11.176;2022-10-22T07:08:54;13.30;99.90
4699;DHT22;33708;49.466;11.176;2022-10-22T07:11:22;13.40;99.90
4699;DHT22;33708;49.466;11.176;2022-10-22T07:13:48;13.50;99.90
4699;DHT22;33708;49.466;11.176;2022-10-22T07:16:15;13.60;99.90
4699;DHT22;33708;49.466;11.176;2022-10-22T07:18:41;13.70;99.90
4699;DHT22;33708;49.466;11.176;2022-10-22T07:21:09;13.60;99.90
4699;DHT22;33708;49.466;11.176;2022-10-22T07:23:35;13.70;99.90
4699;DHT22;33708;49.466;11.176;2022-10-22T07:26:01;14.00;99.90
4699;DHT22;33708;49.466;11.176;2022-10-22T07:28:27;14.10;99.90
4699;DHT22;33708;49.466;11.176;2022-10-22T07:30:53;14.30;99.90
4699;DHT22;33708;49.466;11.176;2022-10-22T07:33:19;14.30;99.90
4699;DHT22;33708;49.466;11.176;2022-10-22T07:35:45;14.40;99.90
4699;DHT22;33708;49.466;11.176;2022-10-22T07:38:11;14.50;99.90
4699;DHT22;33708;49.466;11.176;2022-10-22T07:40:36;14.50;99.90
4699;DHT22;33708;49.466;11.176;2022-10-22T07:43:02;14.50;99.90
4699;DHT22;33708;49.466;11.176;2022-10-22T07:45:28;14.80;99.90
4699;DHT22;33708;49.466;11.176;2022-10-22T07:47:54;15.70;99.90
4699;DHT22;33708;49.466;11.176;2022-10-22T07:50:20;16.20;99.90
4699;DHT22;33708;49.466;11.176;2022-10-22T07:52:45;16.50;99.90
4699;DHT22;33708;49.466;11.176;2022-10-22T07:55:11;17.10;99.90
4699;DHT22;33708;49.466;11.176;2022-10-22T07:57:38;18.80;99.90
4699;DHT22;33708;49.466;11.176;2022-10-22T08:00:08;20.70;99.90
4699;DHT22;33708;49.466;11.176;2022-10-22T08:02:35;21.50;99.90
4699;DHT22;33708;49.466;11.176;2022-10-22T08:05:01;22.50;99.90
4699;DHT22;33708;49.466;11.176;2022-10-22T08:07:27;21.70;99.90
4699;DHT22;33708;49.466;11.176;2022-10-22T08:09:52;20.80;99.90
4699;DHT22;33708;49.466;11.176;2022-10-22T08:12:18;20.60;99.90
4699;DHT22;33708;49.466;11.176;2022-10-22T08:14:43;20.80;99.90
4699;DHT22;33708;49.466;11.176;2022-10-22T08:17:09;20.30;99.90
4699;DHT22;33708;49.466;11.176;2022-10-22T08:19:35;19.90;99.90
4699;DHT22;33708;49.466;11.176;2022-10-22T08:22:01;19.10;99.90
4699;DHT22;33708;49.466;11.176;2022-10-22T08:24:27;19.40;99.90
4699;DHT22;33708;49.466;11.176;2022-10-22T08:26:53;18.80;99.90
4699;DHT22;33708;49.466;11.176;2022-10-22T08:29:21;18.80;99.90
4699;DHT22;33708;49.466;11.176;2022-10-22T08:31:48;19.10;99.90
4699;DHT22;33708;49.466;11.176;2022-10-22T08:34:13;19.50;99.90
4699;DHT22;33708;49.466;11.176;2022-10-22T08:36:40;19.40;99.90
4699;DHT22;33708;49.466;11.176;2022-10-22T08:39:05;19.60;99.90
4699;DHT22;33708;49.466;11.176;2022-10-22T08:42:25;20.40;99.90
4699;DHT22;33708;49.466;11.176;2022-10-22T08:47:20;21.60;99.90
4699;DHT22;33708;49.466;11.176;2022-10-22T08:49:52;20.80;97.40
4699;DHT22;33708;49.466;11.176;2022-10-22T08:52:18;20.20;99.10
4699;DHT22;33708;49.466;11.176;2022-10-22T08:54:53;20.00;98.00
4699;DHT22;33708;49.466;11.176;2022-10-22T08:57:35;19.90;99.40
4699;DHT22;33708;49.466;11.176;2022-10-22T09:03:28;20.60;94.50
4699;DHT22;33708;49.466;11.176;2022-10-22T09:06:11;20.20;95.10
4699;DHT22;33708;49.466;11.176;2022-10-22T09:08:38;20.60;93.40
4699;DHT22;33708;49.466;11.176;2022-10-22T09:13:53;19.20;93.90
4699;DHT22;33708;49.466;11.176;2022-10-22T09:19:32;18.70;96.80
4699;DHT22;33708;49.466;11.176;2022-10-22T09:22:21;18.60;98.40
4699;DHT22;33708;49.466;11.176;2022-10-22T09:25:01;18.50;99.90
4699;DHT22;33708;49.466;11.176;2022-10-22T09:27:35;18.50;99.90
4699;DHT22;33708;49.466;11.176;2022-10-22T09:30:01;18.40;99.90
4699;DHT22;33708;49.466;11.176;2022-10-22T09:32:27;18.30;99.90
4699;DHT22;33708;49.466;11.176;2022-10-22T09:34:56;18.30;99.90
4699;DHT22;33708;49.466;11.176;2022-10-22T09:37:26;18.40;99.90
4699;DHT22;33708;49.466;11.176;2022-10-22T09:39:53;18.60;99.90
4699;DHT22;33708;49.466;11.176;2022-10-22T09:42:20;18.70;99.90
4699;DHT22;33708;49.466;11.176;2022-10-22T09:44:58;18.90;99.90
4699;DHT22;33708;49.466;11.176;2022-10-22T09:50:26;19.40;99.90
4699;DHT22;33708;49.466;11.176;2022-10-22T09:53:30;19.10;99.90
4699;DHT22;33708;49.466;11.176;2022-10-22T09:56:00;19.10;99.90
4699;DHT22;33708;49.466;11.176;2022-10-22T09:58:41;19.10;99.90
4699;DHT22;33708;49.466;11.176;2022-10-22T10:01:16;18.80;99.90
4699;DHT22;33708;49.466;11.176;2022-10-22T10:03:42;18.60;99.80
4699;DHT22;33708;49.466;11.176;2022-10-22T10:06:08;18.40;99.90
4699;DHT22;33708;49.466;11.176;2022-10-22T10:08:33;18.20;99.90
4699;DHT22;33708;49.466;11.176;2022-10-22T10:11:05;18.30;99.90
4699;DHT22;33708;49.466;11.176;2022-10-22T10:13:58;18.60;99.90
4699;DHT22;33708;49.466;11.176;2022-10-22T10:25:11;19.10;99.90
4699;DHT22;33708;49.466;11.176;2022-10-22T10:34:10;20.20;98.90
4699;DHT22;33708;49.466;11.176;2022-10-22T10:42:21;19.60;92.20
4699;DHT22;33708;49.466;11.176;2022-10-22T10:47:55;19.30;91.20
4699;DHT22;33708;49.466;11.176;2022-10-22T10:50:36;19.50;92.40
4699;DHT22;33708;49.466;11.176;2022-10-22T10:53:13;19.20;91.10
4699;DHT22;33708;49.466;11.176;2022-10-22T11:02:07;19.50;92.50
4699;DHT22;33708;49.466;11.176;2022-10-22T11:07:16;19.70;92.00
4699;DHT22;33708;49.466;11.176;2022-10-22T11:09:54;19.80;87.50
4699;DHT22;33708;49.466;11.176;2022-10-22T11:12:26;19.40;86.50
4699;DHT22;33708;49.466;11.176;2022-10-22T11:15:24;19.90;85.60
4699;DHT22;33708;49.466;11.176;2022-10-22T11:17:54;19.90;79.90
4699;DHT22;33708;49.466;11.176;2022-10-22T11:23:01;20.50;80.10
4699;DHT22;33708;49.466;11.176;2022-10-22T11:25:43;20.10;74.60
4699;DHT22;33708;49.466;11.176;2022-10-22T11:28:17;20.10;77.50
4699;DHT22;33708;49.466;11.176;2022-10-22T11:30:48;19.90;71.40
4699;DHT22;33708;49.466;11.176;2022-10-22T11:33:19;20.10;70.30
4699;DHT22;33708;49.466;11.176;2022-10-22T11:35:46;20.90;71.80
4699;DHT22;33708;49.466;11.176;2022-10-22T11:38:21;21.10;66.80
4699;DHT22;33708;49.466;11.176;2022-10-22T11:41:04;21.30;66.30
4699;DHT22;33708;49.466;11.176;2022-10-22T11:43:51;21.60;56.00
4699;DHT22;33708;49.466;11.176;2022-10-22T11:48:42;21.90;65.90
4699;DHT22;33708;49.466;11.176;2022-10-22T11:51:31;21.80;51.20
4699;DHT22;33708;49.466;11.176;2022-10-22T11:53:57;21.40;46.40
4699;DHT22;33708;49.466;11.176;2022-10-22T11:56:26;20.40;43.60
4699;DHT22;33708;49.466;11.176;2022-10-22T11:58:54;20.00;45.20
4699;DHT22;33708;49.466;11.176;2022-10-22T12:01:26;19.80;46.50
4699;DHT22;33708;49.466;11.176;2022-10-22T12:06:25;19.70;48.80
4699;DHT22;33708;49.466;11.176;2022-10-22T12:11:25;19.00;51.70
4699;DHT22;33708;49.466;11.176;2022-10-22T12:14:01;19.10;55.80
4699;DHT22;33708;49.466;11.176;2022-10-22T12:16:42;19.00;56.10
4699;DHT22;33708;49.466;11.176;2022-10-22T12:19:15;19.30;56.10
4699;DHT22;33708;49.466;11.176;2022-10-22T12:21:45;19.20;56.60
4699;DHT22;33708;49.466;11.176;2022-10-22T12:24:15;19.40;53.70
4699;DHT22;33708;49.466;11.176;2022-10-22T12:26:41;19.70;55.60
4699;DHT22;33708;49.466;11.176;2022-10-22T12:29:13;19.80;55.50
4699;DHT22;33708;49.466;11.176;2022-10-22T12:31:41;20.10;54.20
4699;DHT22;33708;49.466;11.176;2022-10-22T12:34:12;20.00;52.60
4699;DHT22;33708;49.466;11.176;2022-10-22T12:36:38;19.80;49.70
4699;DHT22;33708;49.466;11.176;2022-10-22T12:39:11;20.00;51.50
4699;DHT22;33708;49.466;11.176;2022-10-22T12:41:38;19.80;50.40
4699;DHT22;33708;49.466;11.176;2022-10-22T12:44:04;19.90;50.50
4699;DHT22;33708;49.466;11.176;2022-10-22T12:46:32;19.80;48.50
4699;DHT22;33708;49.466;11.176;2022-10-22T12:49:07;19.50;46.50
4699;DHT22;33708;49.466;11.176;2022-10-22T12:51:35;18.90;46.20
4699;DHT22;33708;49.466;11.176;2022-10-22T12:54:06;18.70;48.60
4699;DHT22;33708;49.466;11.176;2022-10-22T12:56:33;18.50;48.00
4699;DHT22;33708;49.466;11.176;2022-10-22T13:01:39;18.40;48.10
4699;DHT22;33708;49.466;11.176;2022-10-22T13:06:47;18.30;50.70
4699;DHT22;33708;49.466;11.176;2022-10-22T13:09:21;18.30;53.00
4699;DHT22;33708;49.466;11.176;2022-10-22T13:11:53;18.30;51.90
4699;DHT22;33708;49.466;11.176;2022-10-22T13:14:29;18.30;53.00
4699;DHT22;33708;49.466;11.176;2022-10-22T13:19:45;18.20;53.60
4699;DHT22;33708;49.466;11.176;2022-10-22T13:27:45;18.10;53.90
4699;DHT22;33708;49.466;11.176;2022-10-22T13:30:38;18.10;55.60
4699;DHT22;33708;49.466;11.176;2022-10-22T13:33:16;18.10;55.80
4699;DHT22;33708;49.466;11.176;2022-10-22T13:35:44;18.10;58.60
4699;DHT22;33708;49.466;11.176;2022-10-22T13:38:21;18.60;57.60
4699;DHT22;33708;49.466;11.176;2022-10-22T13:40:47;19.00;55.00
4699;DHT22;33708;49.466;11.176;2022-10-22T13:43:15;19.30;53.80
4699;DHT22;33708;49.466;11.176;2022-10-22T13:45:41;18.90;48.50
4699;DHT22;33708;49.466;11.176;2022-10-22T13:48:12;19.10;49.00
4699;DHT22;33708;49.466;11.176;2022-10-22T13:50:39;19.10;47.40
4699;DHT22;33708;49.466;11.176;2022-10-22T13:53:05;19.30;45.00
4699;DHT22;33708;49.466;11.176;2022-10-22T13:55:32;19.60;47.10
4699;DHT22;33708;49.466;11.176;2022-10-22T13:58:08;19.70;46.40
4699;DHT22;33708;49.466;11.176;2022-10-22T14:00:37;19.80;44.40
4699;DHT22;33708;49.466;11.176;2022-10-22T14:03:03;19.70;42.60
4699;DHT22;33708;49.466;11.176;2022-10-22T14:05:30;19.60;40.80
4699;DHT22;33708;49.466;11.176;2022-10-22T14:07:59;19.30;42.30
4699;DHT22;33708;49.466;11.176;2022-10-22T14:10:25;19.40;42.40
4699;DHT22;33708;49.466;11.176;2022-10-22T14:12:51;19.30;38.20
4699;DHT22;33708;49.466;11.176;2022-10-22T14:15:19;19.30;40.00
4699;DHT22;33708;49.466;11.176;2022-10-22T14:17:48;19.10;37.00
4699;DHT22;33708;49.466;11.176;2022-10-22T14:20:16;19.00;37.80
4699;DHT22;33708;49.466;11.176;2022-10-22T14:22:44;18.90;34.70
4699;DHT22;33708;49.466;11.176;2022-10-22T14:25:14;18.80;34.30
4699;DHT22;33708;49.466;11.176;2022-10-22T14:27:40;18.90;31.40
4699;DHT22;33708;49.466;11.176;2022-10-22T14:30:06;18.80;33.20
4699;DHT22;33708;49.466;11.176;2022-10-22T14:32:32;18.80;36.00
4699;DHT22;33708;49.466;11.176;2022-10-22T14:34:57;18.80;35.80
4699;DHT22;33708;49.466;11.176;2022-10-22T14:37:24;18.70;35.10
4699;DHT22;33708;49.466;11.176;2022-10-22T14:39:50;18.80;39.60
4699;DHT22;33708;49.466;11.176;2022-10-22T14:42:25;18.70;40.10
4699;DHT22;33708;49.466;11.176;2022-10-22T14:44:51;18.70;38.20
4699;DHT22;33708;49.466;11.176;2022-10-22T14:47:17;18.80;37.50
4699;DHT22;33708;49.466;11.176;2022-10-22T14:49:43;18.70;40.80
4699;DHT22;33708;49.466;11.176;2022-10-22T14:52:09;18.50;40.20
4699;DHT22;33708;49.466;11.176;2022-10-22T14:54:34;18.50;32.30
4699;DHT22;33708;49.466;11.176;2022-10-22T14:57:03;18.50;32.90
4699;DHT22;33708;49.466;11.176;2022-10-22T14:59:29;18.40;34.90
4699;DHT22;33708;49.466;11.176;2022-10-22T15:01:55;18.30;34.50
4699;DHT22;33708;49.466;11.176;2022-10-22T15:04:21;18.40;40.00
4699;DHT22;33708;49.466;11.176;2022-10-22T15:06:47;18.40;37.20
4699;DHT22;33708;49.466;11.176;2022-10-22T15:09:13;18.40;42.10
4699;DHT22;33708;49.466;11.176;2022-10-22T15:11:39;18.30;42.40
4699;DHT22;33708;49.466;11.176;2022-10-22T15:14:05;18.30;44.60
4699;DHT22;33708;49.466;11.176;2022-10-22T15:16:32;18.10;44.90
4699;DHT22;33708;49.466;11.176;2022-10-22T15:18:57;17.90;52.70
4699;DHT22;33708;49.466;11.176;2022-10-22T15:21:24;17.80;52.50
4699;DHT22;33708;49.466;11.176;2022-10-22T15:23:49;17.60;57.90
4699;DHT22;33708;49.466;11.176;2022-10-22T15:26:15;17.30;64.30
4699;DHT22;33708;49.466;11.176;2022-10-22T15:28:41;17.40;67.60
4699;DHT22;33708;49.466;11.176;2022-10-22T15:31:10;17.30;69.30
4699;DHT22;33708;49.466;11.176;2022-10-22T15:33:36;17.30;68.80
4699;DHT22;33708;49.466;11.176;2022-10-22T15:36:10;17.30;73.20
4699;DHT22;33708;49.466;11.176;2022-10-22T15:38:36;17.20;75.80
4699;DHT22;33708;49.466;11.176;2022-10-22T15:41:03;17.20;78.30
4699;DHT22;33708;49.466;11.176;2022-10-22T15:43:29;17.20;84.30
4699;DHT22;33708;49.466;11.176;2022-10-22T15:46:10;17.20;90.50
4699;DHT22;33708;49.466;11.176;2022-10-22T15:48:36;17.10;93.70
4699;DHT22;33708;49.466;11.176;2022-10-22T15:51:10;17.00;95.60
4699;DHT22;33708;49.466;11.176;2022-10-22T15:53:36;16.80;97.90
4699;DHT22;33708;49.466;11.176;2022-10-22T15:56:01;16.60;99.90
4699;DHT22;33708;49.466;11.176;2022-10-22T15:58:27;16.50;99.90
4699;DHT22;33708;49.466;11.176;2022-10-22T16:00:53;16.30;99.90
4699;DHT22;33708;49.466;11.176;2022-10-22T16:03:18;16.20;99.90
4699;DHT22;33708;49.466;11.176;2022-10-22T16:05:51;16.00;99.90
4699;DHT22;33708;49.466;11.176;2022-10-22T16:08:19;15.80;99.90
4699;DHT22;33708;49.466;11.176;2022-10-22T16:10:45;15.80;99.90
4699;DHT22;33708;49.466;11.176;2022-10-22T16:13:13;15.70;99.90
4699;DHT22;33708;49.466;11.176;2022-10-22T16:15:39;15.60;99.90
4699;DHT22;33708;49.466;11.176;2022-10-22T16:18:04;15.60;99.90
4699;DHT22;33708;49.466;11.176;2022-10-22T16:20:30;15.70;99.90
4699;DHT22;33708;49.466;11.176;2022-10-22T16:22:56;15.70;99.90
4699;DHT22;33708;49.466;11.176;2022-10-22T16:25:21;15.60;99.90
4699;DHT22;33708;49.466;11.176;2022-10-22T16:27:50;15.50;99.90
4699;DHT22;33708;49.466;11.176;2022-10-22T16:30:16;15.50;99.90
4699;DHT22;33708;49.466;11.176;2022-10-22T16:32:42;15.40;99.90
4699;DHT22;33708;49.466;11.176;2022-10-22T16:35:08;15.30;99.90
4699;DHT22;33708;49.466;11.176;2022-10-22T16:37:34;15.20;99.90
4699;DHT22;33708;49.466;11.176;2022-10-22T16:39:59;15.10;99.90
4699;DHT22;33708;49.466;11.176;2022-10-22T16:42:25;15.00;99.90
4699;DHT22;33708;49.466;11.176;2022-10-22T16:44:54;14.80;99.90
4699;DHT22;33708;49.466;11.176;2022-10-22T16:47:19;14.50;99.90
4699;DHT22;33708;49.466;11.176;2022-10-22T16:49:45;14.40;99.90
4699;DHT22;33708;49.466;11.176;2022-10-22T16:52:11;14.20;99.90
4699;DHT22;33708;49.466;11.176;2022-10-22T16:54:36;14.10;99.90
4699;DHT22;33708;49.466;11.176;2022-10-22T16:57:02;14.00;99.90
4699;DHT22;33708;49.466;11.176;2022-10-22T16:59:27;13.90;99.90
4699;DHT22;33708;49.466;11.176;2022-10-22T17:01:53;13.90;99.90
4699;DHT22;33708;49.466;11.176;2022-10-22T17:04:19;13.80;99.90
4699;DHT22;33708;49.466;11.176;2022-10-22T17:06:46;13.80;99.90
4699;DHT22;33708;49.466;11.176;2022-10-22T17:09:12;13.70;99.90